createdAt,value
2023-04-14T00:02:52.569Z,13.30
2023-04-14T00:07:56.781Z,12.20
2023-04-14T00:13:01.185Z,12.63
2023-04-14T00:18:04.360Z,12.07
2023-04-14T00:23:08.602Z,10.63
2023-04-14T00:28:11.361Z,14.48
2023-04-14T00:33:14.075Z,13.02
2023-04-14T00:38:18.437Z,14.40
2023-04-14T00:43:21.230Z,10.98
2023-04-14T00:48:24.064Z,13.35
2023-04-14T00:53:28.942Z,13.55
2023-04-14T00:58:32.551Z,14.18
2023-04-14T01:03:37.267Z,13.13
2023-04-14T01:08:41.605Z,17.52
2023-04-14T01:13:52.847Z,19.48
2023-04-14T01:19:02.526Z,19.92
2023-04-14T01:24:38.704Z,22.70
2023-04-14T01:30:01.293Z,20.90
2023-04-14T01:35:10.343Z,21.17
2023-04-14T01:40:19.495Z,20.92
2023-04-14T01:45:26.454Z,20.52
2023-04-14T01:50:32.520Z,23.15
2023-04-14T01:55:38.428Z,24.25
2023-04-14T02:00:43.743Z,22.15
2023-04-14T02:05:49.975Z,22.42
2023-04-14T02:10:57.552Z,19.67
2023-04-14T02:16:02.730Z,17.20
2023-04-14T02:21:07.614Z,19.63
2023-04-14T02:26:14.740Z,21.25
2023-04-14T02:31:23.739Z,19.05
2023-04-14T02:36:35.493Z,22.17
2023-04-14T02:41:41.536Z,19.70
2023-04-14T02:47:07.733Z,18.17
2023-04-14T02:52:18.548Z,22.98
2023-04-14T02:57:23.130Z,21.03
2023-04-14T03:02:28.240Z,20.77
2023-04-14T03:07:43.084Z,23.95
2023-04-14T03:12:49.000Z,20.83
2023-04-14T03:17:55.905Z,21.08
2023-04-14T03:23:05.328Z,22.20
2023-04-14T03:28:16.383Z,22.67
2023-04-14T03:33:25.973Z,23.20
2023-04-14T03:38:32.780Z,25.05
2023-04-14T03:43:37.449Z,22.97
2023-04-14T03:48:47.214Z,22.35
2023-04-14T03:53:56.848Z,23.27
2023-04-14T03:59:02.460Z,19.70
2023-04-14T04:04:08.944Z,23.33
2023-04-14T04:09:15.838Z,23.20
2023-04-14T04:14:21.138Z,24.63
2023-04-14T04:19:26.226Z,23.50
2023-04-14T04:24:37.730Z,20.35
2023-04-14T04:29:42.876Z,25.13
2023-04-14T04:34:47.595Z,19.90
2023-04-14T04:39:53.835Z,23.40
2023-04-14T04:44:57.105Z,23.42
2023-04-14T04:50:00.481Z,21.92
2023-04-14T04:55:05.373Z,18.45
2023-04-14T05:00:09.612Z,18.33
2023-04-14T05:05:12.482Z,14.77
2023-04-14T05:10:16.789Z,22.42
2023-04-14T05:15:19.568Z,19.45
2023-04-14T05:20:22.381Z,17.75
2023-04-14T05:25:26.478Z,16.63
2023-04-14T05:30:29.815Z,17.88
2023-04-14T05:35:32.570Z,15.73
2023-04-14T05:40:36.681Z,10.90
2023-04-14T05:45:39.447Z,11.20
2023-04-14T05:50:42.335Z,9.75
2023-04-14T05:55:47.910Z,9.73
2023-04-14T06:00:50.762Z,8.98
2023-04-14T06:05:53.521Z,10.27
2023-04-14T06:10:57.944Z,10.70
2023-04-14T06:16:00.913Z,13.15
2023-04-14T06:21:03.685Z,17.13
2023-04-14T06:26:08.221Z,14.20
2023-04-14T06:31:10.975Z,12.07
2023-04-14T06:36:14.849Z,11.45
2023-04-14T06:41:19.004Z,8.70
2023-04-14T06:46:21.775Z,9.45
2023-04-14T06:51:27.160Z,5.55
2023-04-14T06:56:31.257Z,6.80
2023-04-14T07:01:34.172Z,5.53
2023-04-14T07:06:38.152Z,3.70
2023-04-14T07:11:42.324Z,6.93
2023-04-14T07:16:45.069Z,5.20
2023-04-14T07:21:48.251Z,5.32
2023-04-14T07:26:52.501Z,3.60
2023-04-14T07:31:55.339Z,5.20
2023-04-14T07:36:58.177Z,5.07
2023-04-14T07:42:02.318Z,5.25
2023-04-14T07:47:05.137Z,4.38
2023-04-14T07:52:07.905Z,5.05
2023-04-14T07:57:12.086Z,7.25
2023-04-14T08:02:15.360Z,7.00
2023-04-14T08:07:18.187Z,7.07
2023-04-14T08:12:22.338Z,9.63
2023-04-14T08:17:25.479Z,8.57
2023-04-14T08:22:28.220Z,9.73
2023-04-14T08:27:32.621Z,5.40
2023-04-14T08:32:35.380Z,8.13
2023-04-14T08:37:38.125Z,4.80
2023-04-14T08:42:42.285Z,5.43
2023-04-14T08:47:47.157Z,5.53
2023-04-14T08:52:56.220Z,4.15
2023-04-14T08:58:01.955Z,5.47
2023-04-14T09:03:05.864Z,2.78
2023-04-14T09:08:08.948Z,4.30
2023-04-14T09:13:15.282Z,7.40
2023-04-14T09:18:18.192Z,6.43
2023-04-14T09:23:22.673Z,5.18
2023-04-14T09:28:26.831Z,8.98
2023-04-14T09:33:29.978Z,10.20
2023-04-14T09:38:34.094Z,3.97
2023-04-14T09:43:38.214Z,8.48
2023-04-14T09:48:52.088Z,7.43
2023-04-14T09:53:55.766Z,7.00
2023-04-14T09:59:02.359Z,8.45
2023-04-14T10:04:05.585Z,7.88
2023-04-14T10:09:08.319Z,6.40
2023-04-14T10:14:12.447Z,6.20
2023-04-14T10:19:15.551Z,4.20
2023-04-14T10:24:18.394Z,5.18
2023-04-14T10:29:22.862Z,3.00
2023-04-14T10:34:26.936Z,3.70
2023-04-14T10:39:29.676Z,11.20
2023-04-14T10:44:35.426Z,6.10
2023-04-14T10:49:41.101Z,4.43
2023-04-14T10:54:52.551Z,3.42
2023-04-14T10:59:58.691Z,6.32
2023-04-14T11:05:04.244Z,4.65
2023-04-14T11:10:27.002Z,7.68
2023-04-14T11:15:47.891Z,3.35
2023-04-14T11:20:53.598Z,4.57
2023-04-14T11:25:59.201Z,3.90
2023-04-14T11:31:05.985Z,4.47
2023-04-14T11:36:10.303Z,4.03
2023-04-14T11:41:16.075Z,4.80
2023-04-14T11:46:22.452Z,2.83
2023-04-14T11:51:32.448Z,5.50
2023-04-14T11:56:37.234Z,4.10
2023-04-14T12:01:41.390Z,5.97
2023-04-14T12:06:45.327Z,5.47
2023-04-14T12:11:55.352Z,3.55
2023-04-14T12:16:59.525Z,3.85
2023-04-14T12:22:02.311Z,5.30
2023-04-14T12:27:06.307Z,5.20
2023-04-14T12:32:13.019Z,7.05
2023-04-14T12:37:16.441Z,4.72
2023-04-14T12:42:19.929Z,6.93
2023-04-14T12:47:32.640Z,3.85
2023-04-14T12:52:38.175Z,6.72
2023-04-14T12:57:41.232Z,8.07
2023-04-14T13:02:46.411Z,6.65
2023-04-14T13:07:49.905Z,6.90
2023-04-14T13:12:52.748Z,8.30
2023-04-14T13:17:56.805Z,4.72
2023-04-14T13:22:59.607Z,6.43
2023-04-14T13:28:02.382Z,5.07
2023-04-14T13:33:06.500Z,6.82
2023-04-14T13:38:09.279Z,7.80
2023-04-14T13:43:13.859Z,5.32
2023-04-14T13:48:18.733Z,6.50
2023-04-14T13:53:21.598Z,7.63
2023-04-14T13:58:25.366Z,6.75
2023-04-14T14:03:30.808Z,6.78
2023-04-14T14:08:37.743Z,4.90
2023-04-14T14:13:40.709Z,6.68
2023-04-14T14:18:46.503Z,7.45
2023-04-14T14:23:50.086Z,5.25
2023-04-14T14:28:53.035Z,4.03
2023-04-14T14:33:57.139Z,7.65
2023-04-14T14:38:59.893Z,5.20
2023-04-14T14:44:03.035Z,3.58
2023-04-14T14:49:08.518Z,5.00
2023-04-14T14:54:11.707Z,5.93
2023-04-14T14:59:16.216Z,5.15
2023-04-14T15:04:20.361Z,5.85
2023-04-14T15:09:23.504Z,6.63
2023-04-14T15:14:26.315Z,6.30
2023-04-14T15:19:33.067Z,3.90
2023-04-14T15:24:36.067Z,7.47
2023-04-14T15:29:38.813Z,5.78
2023-04-14T15:34:42.934Z,7.65
2023-04-14T15:39:45.746Z,5.15
2023-04-14T15:44:50.294Z,5.70
2023-04-14T15:50:10.063Z,6.13
2023-04-14T15:55:13.951Z,6.70
2023-04-14T16:00:17.602Z,5.80
2023-04-14T16:05:23.549Z,5.93
2023-04-14T16:10:26.626Z,6.68
2023-04-14T16:15:29.534Z,5.68
2023-04-14T16:20:34.124Z,8.90
2023-04-14T16:25:37.746Z,7.03
2023-04-14T16:30:40.462Z,8.15
2023-04-14T16:35:44.723Z,5.18
2023-04-14T16:40:55.901Z,4.90
2023-04-14T16:46:02.162Z,7.00
2023-04-14T16:51:08.297Z,8.45
2023-04-14T16:56:13.058Z,7.80
2023-04-14T17:01:16.075Z,6.38
2023-04-14T17:06:20.519Z,4.30
2023-04-14T17:11:23.266Z,6.60
2023-04-14T17:16:26.071Z,6.70
2023-04-14T17:21:30.577Z,6.07
2023-04-14T17:26:33.448Z,5.90
2023-04-14T17:31:38.951Z,8.35
2023-04-14T17:36:44.123Z,4.93
2023-04-14T17:41:47.822Z,6.57
2023-04-14T17:46:50.528Z,8.40
2023-04-14T17:51:54.993Z,5.18
2023-04-14T17:56:57.748Z,5.50
2023-04-14T18:02:00.568Z,6.35
2023-04-14T18:07:04.737Z,7.10
2023-04-14T18:12:07.526Z,8.80
2023-04-14T18:17:10.623Z,10.82
2023-04-14T18:22:14.832Z,14.75
2023-04-14T18:32:25.222Z,8.23
2023-04-14T18:37:29.473Z,13.25
2023-04-14T18:42:32.730Z,12.30
2023-04-14T18:47:35.616Z,13.38
2023-04-14T18:52:40.051Z,11.30
2023-04-14T18:57:42.786Z,10.52
2023-04-14T19:02:45.747Z,13.07
2023-04-14T19:07:49.941Z,12.45
2023-04-14T19:12:52.862Z,12.60
2023-04-14T19:17:56.057Z,11.88
2023-04-14T19:23:00.490Z,15.15
2023-04-14T19:28:05.652Z,14.57
2023-04-14T19:33:08.487Z,15.48
2023-04-14T19:38:13.420Z,17.98
2023-04-14T19:43:18.531Z,18.13
2023-04-14T19:48:31.807Z,16.38
2023-04-14T19:53:37.005Z,12.60
2023-04-14T19:58:40.561Z,11.50
2023-04-14T20:04:05.661Z,13.70
2023-04-14T20:09:07.655Z,12.77
2023-04-14T20:14:10.716Z,11.38
2023-04-14T20:19:13.648Z,11.40
2023-04-14T20:24:17.824Z,12.40
2023-04-14T20:29:20.616Z,13.13
2023-04-14T20:34:23.447Z,13.43
2023-04-14T20:39:27.592Z,12.63
2023-04-14T20:44:30.552Z,12.82
2023-04-14T20:49:33.625Z,9.65
2023-04-14T20:54:38.284Z,10.27
2023-04-14T20:59:41.038Z,9.98
2023-04-14T21:04:43.814Z,15.65
2023-04-14T21:09:49.055Z,15.95
2023-04-14T21:15:31.331Z,14.98
2023-04-14T21:20:14.863Z,14.43
2023-04-14T21:25:18.947Z,13.27
2023-04-14T21:30:21.852Z,13.20
2023-04-14T21:35:25.077Z,13.00
2023-04-14T21:40:29.587Z,12.50
2023-04-14T21:45:32.862Z,13.75
2023-04-14T21:50:35.712Z,15.07
2023-04-14T21:55:40.007Z,13.95
2023-04-14T22:00:42.828Z,12.52
2023-04-14T22:05:45.660Z,12.18
2023-04-14T22:10:49.862Z,14.85
2023-04-14T22:15:52.765Z,13.13
2023-04-14T22:20:55.654Z,12.32
2023-04-14T22:25:59.813Z,12.25
2023-04-14T22:31:02.755Z,11.38
2023-04-14T22:36:07.028Z,12.38
2023-04-14T22:41:11.123Z,13.05
2023-04-14T22:46:13.921Z,10.95
2023-04-14T22:51:16.847Z,9.50
2023-04-14T22:56:20.968Z,11.13
2023-04-14T23:01:24.436Z,10.45
2023-04-14T23:06:27.300Z,11.10
2023-04-14T23:11:31.926Z,10.75
2023-04-14T23:16:35.104Z,7.53
2023-04-14T23:21:37.831Z,7.05
2023-04-14T23:26:42.149Z,7.25
2023-04-14T23:31:44.945Z,5.85
2023-04-14T23:36:48.122Z,6.30
2023-04-14T23:41:52.245Z,7.18
2023-04-14T23:46:55.206Z,7.13
2023-04-14T23:51:58.115Z,7.50
2023-04-14T23:57:02.396Z,6.72
